Pagina principale
METAR-TAF:

METAR-TAF

Aeroporti :

Palermo, Italia

Aeroporto di Palermo-Punta Raisi

latitudine: 38-11N, longitudine: 013-06E, altezza: 21 m

Osservazione

Il bollettino è stato emesso 14 minuti fa, alle 10:20 UTC
Vento 4 kt da nord/nord-ovest, variando fra ovest e nord/nord-est
Temperature 23°C
Umidità 50%
Pressione 1020 hPa
Visibilità 10 km o più
Poco nuvoloso ad un'altezza di 2800 ft

METAR: LICJ 211020Z 33004KT 270V020 9999 FEW028 23/12 Q1020

Ora: 12:34 (10:34 UTC)

Previsione

Il bollettino è stato emesso 5 ore e 34 minuti fa, alle 05:00 UTC
Previsione valida dal 21 alle 06 UTC al 22 alle 06 UTC
Vento 10 kt da ovest/nord-ovest
Visibilità 10 km o più
Nubi sparse ad un'altezza di 3000 ft
Evoluzione graduale
dal 21 alle 09 UTC al 21 alle 11 UTC
Vento 12 kt da nord/nord-est
Evoluzione graduale
dal 21 alle 18 UTC al 21 alle 20 UTC
Vento 6 kt da direzioni variabili

TAF: LICJ 210500Z 2106/2206 30010KT 9999 SCT030 BECMG 2109/2111 02012KT BECMG 2118/2120 VRB06KT

Osservazioni e previsioni meteorologiche di più di 4000 aeroporti (messaggi METAR e TAF).

Le stazioni disponibili sono rappresentate dai dischi gialli e rossi sulla carta.

Puntare il mouse per vedere il nome della stazione.

Clicca sopra per visualizzare le osservazioni e previsioni meteorologiche.

Per cambiare la mappa : fare clic sui pulsanti verdi con una croce nera per ingrandire, il pulsante verde con un trattino per diminuire, o sulla freccia verde per le mappe adiacenti.


METAR-TAF: